sensor_id;sensor_type;location;lat;lon;timestamp;pressure;altitude;pressure_sealevel;temperature
31528;BMP280;10206;48.012;10.030;2023-04-03T00:00:17;95261.91;;;5.35
31528;BMP280;10206;48.012;10.030;2023-04-03T00:02:43;95268.81;;;4.80
31528;BMP280;10206;48.012;10.030;2023-04-03T00:05:09;95267.69;;;5.26
31528;BMP280;10206;48.012;10.030;2023-04-03T00:07:35;95267.81;;;5.34
31528;BMP280;10206;48.012;10.030;2023-04-03T00:10:01;95267.56;;;5.19
31528;BMP280;10206;48.012;10.030;2023-04-03T00:12:27;95262.66;;;5.49
31528;BMP280;10206;48.012;10.030;2023-04-03T00:14:53;95259.00;;;5.15
31528;BMP280;10206;48.012;10.030;2023-04-03T00:17:19;95260.97;;;4.95
31528;BMP280;10206;48.012;10.030;2023-04-03T00:19:45;95255.03;;;4.84
31528;BMP280;10206;48.012;10.030;2023-04-03T00:22:12;95252.47;;;5.23
31528;BMP280;10206;48.012;10.030;2023-04-03T00:24:38;95251.53;;;5.21
31528;BMP280;10206;48.012;10.030;2023-04-03T00:27:04;95264.63;;;5.17
31528;BMP280;10206;48.012;10.030;2023-04-03T00:29:30;95259.28;;;5.43
31528;BMP280;10206;48.012;10.030;2023-04-03T00:31:56;95263.91;;;5.16
31528;BMP280;10206;48.012;10.030;2023-04-03T00:34:22;95257.72;;;5.34
31528;BMP280;10206;48.012;10.030;2023-04-03T00:36:48;95260.56;;;5.42
31528;BMP280;10206;48.012;10.030;2023-04-03T00:39:14;95261.53;;;5.26
31528;BMP280;10206;48.012;10.030;2023-04-03T00:41:40;95255.44;;;5.06
31528;BMP280;10206;48.012;10.030;2023-04-03T00:45:21;95255.25;;;5.18
31528;BMP280;10206;48.012;10.030;2023-04-03T00:47:13;95245.97;;;4.20
31528;BMP280;10206;48.012;10.030;2023-04-03T00:49:41;95252.59;;;4.99
31528;BMP280;10206;48.012;10.030;2023-04-03T00:52:11;95251.78;;;5.04
31528;BMP280;10206;48.012;10.030;2023-04-03T00:54:41;95241.34;;;5.27
31528;BMP280;10206;48.012;10.030;2023-04-03T00:57:09;95250.16;;;5.14
31528;BMP280;10206;48.012;10.030;2023-04-03T00:59:39;95249.41;;;5.14
31528;BMP280;10206;48.012;10.030;2023-04-03T01:02:07;95255.28;;;4.99
31528;BMP280;10206;48.012;10.030;2023-04-03T01:04:36;95252.53;;;4.67
31528;BMP280;10206;48.012;10.030;2023-04-03T01:07:07;95250.69;;;4.75
31528;BMP280;10206;48.012;10.030;2023-04-03T01:09:34;95245.94;;;5.00
31528;BMP280;10206;48.012;10.030;2023-04-03T01:14:51;95247.25;;;4.93
31528;BMP280;10206;48.012;10.030;2023-04-03T01:17:30;95254.78;;;5.00
31528;BMP280;10206;48.012;10.030;2023-04-03T01:22:53;95248.41;;;5.17
31528;BMP280;10206;48.012;10.030;2023-04-03T01:25:22;95248.81;;;5.21
31528;BMP280;10206;48.012;10.030;2023-04-03T01:27:48;95249.41;;;5.14
31528;BMP280;10206;48.012;10.030;2023-04-03T01:30:18;95238.81;;;5.47
31528;BMP280;10206;48.012;10.030;2023-04-03T01:32:44;95247.06;;;5.55
31528;BMP280;10206;48.012;10.030;2023-04-03T01:35:11;95234.00;;;5.40
31528;BMP280;10206;48.012;10.030;2023-04-03T01:37:37;95235.09;;;5.50
31528;BMP280;10206;48.012;10.030;2023-04-03T01:40:04;95240.19;;;5.54
31528;BMP280;10206;48.012;10.030;2023-04-03T01:42:30;95241.47;;;5.66
31528;BMP280;10206;48.012;10.030;2023-04-03T01:44:56;95242.81;;;5.72
31528;BMP280;10206;48.012;10.030;2023-04-03T01:47:22;95240.72;;;5.21
31528;BMP280;10206;48.012;10.030;2023-04-03T01:49:49;95236.44;;;5.57
31528;BMP280;10206;48.012;10.030;2023-04-03T01:52:15;95243.00;;;5.48
31528;BMP280;10206;48.012;10.030;2023-04-03T01:54:41;95247.69;;;5.61
31528;BMP280;10206;48.012;10.030;2023-04-03T01:57:07;95239.56;;;5.48
31528;BMP280;10206;48.012;10.030;2023-04-03T01:59:33;95248.00;;;5.26
31528;BMP280;10206;48.012;10.030;2023-04-03T02:01:59;95248.66;;;5.32
31528;BMP280;10206;48.012;10.030;2023-04-03T02:04:25;95238.06;;;5.34
31528;BMP280;10206;48.012;10.030;2023-04-03T02:06:51;95242.78;;;5.15
31528;BMP280;10206;48.012;10.030;2023-04-03T02:09:17;95242.34;;;5.42
31528;BMP280;10206;48.012;10.030;2023-04-03T02:11:43;95237.75;;;5.05
31528;BMP280;10206;48.012;10.030;2023-04-03T02:14:10;95242.97;;;5.35
31528;BMP280;10206;48.012;10.030;2023-04-03T02:16:36;95243.28;;;5.45
31528;BMP280;10206;48.012;10.030;2023-04-03T02:19:02;95240.00;;;5.52
31528;BMP280;10206;48.012;10.030;2023-04-03T02:21:28;95245.06;;;5.55
31528;BMP280;10206;48.012;10.030;2023-04-03T02:23:54;95239.47;;;5.22
31528;BMP280;10206;48.012;10.030;2023-04-03T02:26:20;95240.47;;;5.37
31528;BMP280;10206;48.012;10.030;2023-04-03T02:28:47;95244.78;;;5.27
31528;BMP280;10206;48.012;10.030;2023-04-03T02:31:13;95236.78;;;5.22
31528;BMP280;10206;48.012;10.030;2023-04-03T02:33:39;95239.13;;;5.12
31528;BMP280;10206;48.012;10.030;2023-04-03T02:36:06;95246.22;;;5.60
31528;BMP280;10206;48.012;10.030;2023-04-03T02:38:33;95240.38;;;4.92
31528;BMP280;10206;48.012;10.030;2023-04-03T02:41:06;95246.84;;;4.89
31528;BMP280;10206;48.012;10.030;2023-04-03T02:43:32;95245.91;;;5.19
31528;BMP280;10206;48.012;10.030;2023-04-03T02:45:58;95246.53;;;4.93
31528;BMP280;10206;48.012;10.030;2023-04-03T02:48:25;95248.94;;;4.96
31528;BMP280;10206;48.012;10.030;2023-04-03T02:50:51;95249.53;;;4.89
31528;BMP280;10206;48.012;10.030;2023-04-03T02:53:17;95245.72;;;5.30
31528;BMP280;10206;48.012;10.030;2023-04-03T02:55:44;95242.44;;;5.05
31528;BMP280;10206;48.012;10.030;2023-04-03T02:58:11;95244.69;;;5.01
31528;BMP280;10206;48.012;10.030;2023-04-03T03:00:38;95243.84;;;5.25
31528;BMP280;10206;48.012;10.030;2023-04-03T03:03:04;95241.09;;;5.12
31528;BMP280;10206;48.012;10.030;2023-04-03T03:05:31;95238.50;;;5.38
31528;BMP280;10206;48.012;10.030;2023-04-03T03:07:57;95236.97;;;5.24
31528;BMP280;10206;48.012;10.030;2023-04-03T03:10:23;95240.34;;;5.43
31528;BMP280;10206;48.012;10.030;2023-04-03T03:12:50;95239.56;;;5.16
31528;BMP280;10206;48.012;10.030;2023-04-03T03:15:16;95250.03;;;5.06
31528;BMP280;10206;48.012;10.030;2023-04-03T03:17:43;95242.47;;;5.50
31528;BMP280;10206;48.012;10.030;2023-04-03T03:20:10;95241.63;;;5.55
31528;BMP280;10206;48.012;10.030;2023-04-03T03:22:37;95242.28;;;5.61
31528;BMP280;10206;48.012;10.030;2023-04-03T03:25:03;95241.91;;;5.70
31528;BMP280;10206;48.012;10.030;2023-04-03T03:27:30;95234.41;;;5.76
31528;BMP280;10206;48.012;10.030;2023-04-03T03:29:56;95236.75;;;5.53
31528;BMP280;10206;48.012;10.030;2023-04-03T03:32:22;95235.00;;;5.24
31528;BMP280;10206;48.012;10.030;2023-04-03T03:34:48;95232.97;;;5.12
31528;BMP280;10206;48.012;10.030;2023-04-03T03:37:14;95231.69;;;5.31
31528;BMP280;10206;48.012;10.030;2023-04-03T03:39:40;95235.06;;;5.37
31528;BMP280;10206;48.012;10.030;2023-04-03T03:42:06;95229.19;;;5.33
31528;BMP280;10206;48.012;10.030;2023-04-03T03:44:32;95235.47;;;5.41
31528;BMP280;10206;48.012;10.030;2023-04-03T03:46:59;95240.69;;;4.89
31528;BMP280;10206;48.012;10.030;2023-04-03T03:49:25;95240.66;;;5.07
31528;BMP280;10206;48.012;10.030;2023-04-03T03:51:52;95237.28;;;5.20
31528;BMP280;10206;48.012;10.030;2023-04-03T03:54:18;95242.44;;;5.37
31528;BMP280;10206;48.012;10.030;2023-04-03T03:56:44;95238.59;;;5.14
31528;BMP280;10206;48.012;10.030;2023-04-03T03:59:12;95235.06;;;5.37
31528;BMP280;10206;48.012;10.030;2023-04-03T04:01:38;95244.97;;;5.16
31528;BMP280;10206;48.012;10.030;2023-04-03T04:04:05;95243.09;;;4.92
31528;BMP280;10206;48.012;10.030;2023-04-03T04:06:31;95235.25;;;5.07
31528;BMP280;10206;48.012;10.030;2023-04-03T04:08:57;95240.38;;;4.92
31528;BMP280;10206;48.012;10.030;2023-04-03T04:11:23;95229.09;;;5.07
31528;BMP280;10206;48.012;10.030;2023-04-03T04:13:50;95238.56;;;4.82
31528;BMP280;10206;48.012;10.030;2023-04-03T04:16:16;95234.41;;;4.81
31528;BMP280;10206;48.012;10.030;2023-04-03T04:18:42;95242.09;;;4.58
31528;BMP280;10206;48.012;10.030;2023-04-03T04:21:09;95237.06;;;4.68
31528;BMP280;10206;48.012;10.030;2023-04-03T04:23:35;95245.19;;;4.43
31528;BMP280;10206;48.012;10.030;2023-04-03T04:26:01;95240.19;;;4.90
31528;BMP280;10206;48.012;10.030;2023-04-03T04:28:27;95237.91;;;4.76
31528;BMP280;10206;48.012;10.030;2023-04-03T04:30:53;95237.84;;;4.81
31528;BMP280;10206;48.012;10.030;2023-04-03T04:33:19;95237.84;;;4.81
31528;BMP280;10206;48.012;10.030;2023-04-03T04:35:47;95243.75;;;4.98
31528;BMP280;10206;48.012;10.030;2023-04-03T04:38:14;95240.09;;;4.96
31528;BMP280;10206;48.012;10.030;2023-04-03T04:40:40;95235.72;;;5.25
31528;BMP280;10206;48.012;10.030;2023-04-03T04:43:07;95243.03;;;4.61
31528;BMP280;10206;48.012;10.030;2023-04-03T04:45:33;95245.41;;;5.01
31528;BMP280;10206;48.012;10.030;2023-04-03T04:48:00;95241.25;;;5.19
31528;BMP280;10206;48.012;10.030;2023-04-03T04:50:26;95240.31;;;5.17
31528;BMP280;10206;48.012;10.030;2023-04-03T04:52:52;95237.25;;;5.39
31528;BMP280;10206;48.012;10.030;2023-04-03T04:55:18;95237.25;;;5.39
31528;BMP280;10206;48.012;10.030;2023-04-03T04:57:44;95239.81;;;4.99
31528;BMP280;10206;48.012;10.030;2023-04-03T05:00:11;95234.44;;;5.13
31528;BMP280;10206;48.012;10.030;2023-04-03T05:02:37;95239.75;;;5.50
31528;BMP280;10206;48.012;10.030;2023-04-03T05:05:04;95228.66;;;5.22
31528;BMP280;10206;48.012;10.030;2023-04-03T05:07:30;95228.66;;;5.22
31528;BMP280;10206;48.012;10.030;2023-04-03T05:09:56;95240.53;;;5.00
31528;BMP280;10206;48.012;10.030;2023-04-03T05:12:22;95244.16;;;5.21
31528;BMP280;10206;48.012;10.030;2023-04-03T05:14:48;95239.22;;;4.88
31528;BMP280;10206;48.012;10.030;2023-04-03T05:17:14;95240.25;;;5.03
31528;BMP280;10206;48.012;10.030;2023-04-03T05:19:40;95245.03;;;5.10
31528;BMP280;10206;48.012;10.030;2023-04-03T05:22:07;95242.56;;;4.75
31528;BMP280;10206;48.012;10.030;2023-04-03T05:24:33;95249.09;;;4.67
31528;BMP280;10206;48.012;10.030;2023-04-03T05:26:59;95251.06;;;4.85
31528;BMP280;10206;48.012;10.030;2023-04-03T05:29:25;95247.41;;;4.64
31528;BMP280;10206;48.012;10.030;2023-04-03T05:31:51;95248.16;;;4.64
31528;BMP280;10206;48.012;10.030;2023-04-03T05:34:18;95251.19;;;4.92
31528;BMP280;10206;48.012;10.030;2023-04-03T05:36:44;95258.34;;;5.08
31528;BMP280;10206;48.012;10.030;2023-04-03T05:39:10;95253.25;;;4.86
31528;BMP280;10206;48.012;10.030;2023-04-03T05:41:36;95253.91;;;5.24
31528;BMP280;10206;48.012;10.030;2023-04-03T05:44:02;95261.22;;;4.79
31528;BMP280;10206;48.012;10.030;2023-04-03T05:46:29;95258.66;;;5.05
31528;BMP280;10206;48.012;10.030;2023-04-03T05:48:55;95262.81;;;5.06
31528;BMP280;10206;48.012;10.030;2023-04-03T05:51:28;95263.84;;;4.66
31528;BMP280;10206;48.012;10.030;2023-04-03T05:54:17;95271.16;;;4.89
31528;BMP280;10206;48.012;10.030;2023-04-03T05:56:44;95265.66;;;4.76
31528;BMP280;10206;48.012;10.030;2023-04-03T05:59:11;95262.09;;;4.87
31528;BMP280;10206;48.012;10.030;2023-04-03T06:01:37;95271.97;;;4.84
31528;BMP280;10206;48.012;10.030;2023-04-03T06:04:03;95272.69;;;5.03
31528;BMP280;10206;48.012;10.030;2023-04-03T06:06:51;95269.72;;;5.39
31528;BMP280;10206;48.012;10.030;2023-04-03T06:09:19;95273.75;;;5.14
31528;BMP280;10206;48.012;10.030;2023-04-03T06:11:46;95270.31;;;4.94
31528;BMP280;10206;48.012;10.030;2023-04-03T06:14:12;95268.94;;;5.06
31528;BMP280;10206;48.012;10.030;2023-04-03T06:16:39;95271.50;;;4.99
31528;BMP280;10206;48.012;10.030;2023-04-03T06:19:07;95268.31;;;5.00
31528;BMP280;10206;48.012;10.030;2023-04-03T06:21:33;95270.75;;;5.36
31528;BMP280;10206;48.012;10.030;2023-04-03T06:23:59;95270.50;;;5.34
31528;BMP280;10206;48.012;10.030;2023-04-03T06:26:26;95266.03;;;5.36
31528;BMP280;10206;48.012;10.030;2023-04-03T06:28:53;95270.03;;;5.17
31528;BMP280;10206;48.012;10.030;2023-04-03T06:31:19;95278.09;;;5.03
31528;BMP280;10206;48.012;10.030;2023-04-03T06:33:45;95273.97;;;5.16
31528;BMP280;10206;48.012;10.030;2023-04-03T06:36:12;95278.41;;;5.32
31528;BMP280;10206;48.012;10.030;2023-04-03T06:38:38;95278.72;;;5.09
31528;BMP280;10206;48.012;10.030;2023-04-03T06:41:04;95273.53;;;5.12
31528;BMP280;10206;48.012;10.030;2023-04-03T06:43:30;95280.19;;;4.92
31528;BMP280;10206;48.012;10.030;2023-04-03T06:45:57;95280.84;;;5.17
31528;BMP280;10206;48.012;10.030;2023-04-03T06:48:23;95284.72;;;5.21
31528;BMP280;10206;48.012;10.030;2023-04-03T06:50:49;95289.25;;;4.76
31528;BMP280;10206;48.012;10.030;2023-04-03T06:53:16;95284.50;;;5.19
31528;BMP280;10206;48.012;10.030;2023-04-03T06:55:42;95292.31;;;5.04
31528;BMP280;10206;48.012;10.030;2023-04-03T06:58:08;95281.81;;;5.51
31528;BMP280;10206;48.012;10.030;2023-04-03T07:00:35;95287.22;;;5.19
31528;BMP280;10206;48.012;10.030;2023-04-03T07:03:01;95290.88;;;5.22
31528;BMP280;10206;48.012;10.030;2023-04-03T07:05:27;95292.97;;;4.91
31528;BMP280;10206;48.012;10.030;2023-04-03T07:07:53;95296.69;;;5.26
31528;BMP280;10206;48.012;10.030;2023-04-03T07:10:19;95294.47;;;5.24
31528;BMP280;10206;48.012;10.030;2023-04-03T07:12:46;95295.75;;;5.23
31528;BMP280;10206;48.012;10.030;2023-04-03T07:15:13;95298.50;;;5.36
31528;BMP280;10206;48.012;10.030;2023-04-03T07:17:40;95298.03;;;5.00
31528;BMP280;10206;48.012;10.030;2023-04-03T07:20:07;95304.50;;;4.92
31528;BMP280;10206;48.012;10.030;2023-04-03T07:22:34;95302.41;;;5.22
31528;BMP280;10206;48.012;10.030;2023-04-03T07:25:00;95302.59;;;5.56
31528;BMP280;10206;48.012;10.030;2023-04-03T07:27:26;95304.88;;;5.39
31528;BMP280;10206;48.012;10.030;2023-04-03T07:29:52;95306.94;;;5.33
31528;BMP280;10206;48.012;10.030;2023-04-03T07:32:19;95307.53;;;5.57
31528;BMP280;10206;48.012;10.030;2023-04-03T07:34:45;95306.88;;;5.83
31528;BMP280;10206;48.012;10.030;2023-04-03T07:37:11;95313.81;;;4.96
31528;BMP280;10206;48.012;10.030;2023-04-03T07:39:38;95322.00;;;5.60
31528;BMP280;10206;48.012;10.030;2023-04-03T07:42:04;95311.16;;;5.60
31528;BMP280;10206;48.012;10.030;2023-04-03T07:44:31;95315.38;;;5.74
31528;BMP280;10206;48.012;10.030;2023-04-03T07:46:58;95315.91;;;5.86
31528;BMP280;10206;48.012;10.030;2023-04-03T07:49:25;95313.94;;;5.86
31528;BMP280;10206;48.012;10.030;2023-04-03T07:51:52;95319.81;;;6.16
31528;BMP280;10206;48.012;10.030;2023-04-03T07:54:18;95312.56;;;5.35
31528;BMP280;10206;48.012;10.030;2023-04-03T07:56:45;95326.56;;;5.52
31528;BMP280;10206;48.012;10.030;2023-04-03T07:59:11;95318.44;;;5.52
31528;BMP280;10206;48.012;10.030;2023-04-03T08:01:37;95324.53;;;5.39
31528;BMP280;10206;48.012;10.030;2023-04-03T08:04:03;95321.66;;;5.50
31528;BMP280;10206;48.012;10.030;2023-04-03T08:06:31;95324.91;;;5.49
31528;BMP280;10206;48.012;10.030;2023-04-03T08:09:01;95334.00;;;5.46
31528;BMP280;10206;48.012;10.030;2023-04-03T08:11:27;95329.13;;;5.76
31528;BMP280;10206;48.012;10.030;2023-04-03T08:13:53;95337.03;;;5.55
31528;BMP280;10206;48.012;10.030;2023-04-03T08:16:21;95330.81;;;5.92
31528;BMP280;10206;48.012;10.030;2023-04-03T08:18:48;95336.03;;;5.90
31528;BMP280;10206;48.012;10.030;2023-04-03T08:21:14;95334.72;;;5.65
31528;BMP280;10206;48.012;10.030;2023-04-03T08:23:41;95330.75;;;5.98
31528;BMP280;10206;48.012;10.030;2023-04-03T08:26:12;95335.16;;;5.69
31528;BMP280;10206;48.012;10.030;2023-04-03T08:28:39;95334.13;;;5.85
31528;BMP280;10206;48.012;10.030;2023-04-03T08:31:08;95336.59;;;6.15
31528;BMP280;10206;48.012;10.030;2023-04-03T08:33:36;95335.44;;;6.10
31528;BMP280;10206;48.012;10.030;2023-04-03T08:36:14;95339.28;;;6.02
31528;BMP280;10206;48.012;10.030;2023-04-03T08:38:41;95339.88;;;5.95
31528;BMP280;10206;48.012;10.030;2023-04-03T08:41:11;95333.34;;;6.03
31528;BMP280;10206;48.012;10.030;2023-04-03T08:46:11;95340.38;;;6.25
31528;BMP280;10206;48.012;10.030;2023-04-03T08:48:43;95342.41;;;5.93
31528;BMP280;10206;48.012;10.030;2023-04-03T08:51:15;95339.41;;;6.09
31528;BMP280;10206;48.012;10.030;2023-04-03T08:53:54;95353.00;;;6.04
31528;BMP280;10206;48.012;10.030;2023-04-03T08:56:22;95356.78;;;6.27
31528;BMP280;10206;48.012;10.030;2023-04-03T08:58:58;95348.28;;;6.23
31528;BMP280;10206;48.012;10.030;2023-04-03T09:01:40;95350.75;;;6.21
31528;BMP280;10206;48.012;10.030;2023-04-03T09:04:12;95348.38;;;6.70
31528;BMP280;10206;48.012;10.030;2023-04-03T09:06:41;95347.31;;;6.20
31528;BMP280;10206;48.012;10.030;2023-04-03T09:09:33;95357.00;;;6.16
31528;BMP280;10206;48.012;10.030;2023-04-03T09:12:21;95354.69;;;7.12
31528;BMP280;10206;48.012;10.030;2023-04-03T09:17:56;95355.03;;;6.69
31528;BMP280;10206;48.012;10.030;2023-04-03T09:20:44;95360.88;;;6.47
31528;BMP280;10206;48.012;10.030;2023-04-03T09:25:46;95349.84;;;6.58
31528;BMP280;10206;48.012;10.030;2023-04-03T09:28:13;95353.59;;;6.68
31528;BMP280;10206;48.012;10.030;2023-04-03T09:30:40;95348.78;;;7.00
31528;BMP280;10206;48.012;10.030;2023-04-03T09:33:07;95360.69;;;6.84
31528;BMP280;10206;48.012;10.030;2023-04-03T09:35:36;95349.25;;;6.65
31528;BMP280;10206;48.012;10.030;2023-04-03T09:40:43;95353.34;;;6.92
31528;BMP280;10206;48.012;10.030;2023-04-03T09:45:43;95349.06;;;7.30
31528;BMP280;10206;48.012;10.030;2023-04-03T09:50:53;95360.41;;;7.08
31528;BMP280;10206;48.012;10.030;2023-04-03T09:53:41;95353.16;;;6.90
31528;BMP280;10206;48.012;10.030;2023-04-03T09:58:45;95350.34;;;7.29
31528;BMP280;10206;48.012;10.030;2023-04-03T10:04:15;95358.81;;;7.80
31528;BMP280;10206;48.012;10.030;2023-04-03T10:06:46;95355.47;;;7.53
31528;BMP280;10206;48.012;10.030;2023-04-03T10:12:08;95358.19;;;7.53
31528;BMP280;10206;48.012;10.030;2023-04-03T10:14:53;95352.44;;;7.23
31528;BMP280;10206;48.012;10.030;2023-04-03T10:17:25;95351.50;;;7.75
31528;BMP280;10206;48.012;10.030;2023-04-03T10:27:59;95353.22;;;7.11
31528;BMP280;10206;48.012;10.030;2023-04-03T10:36:40;95356.81;;;7.60
31528;BMP280;10206;48.012;10.030;2023-04-03T10:42:13;95361.66;;;8.23
31528;BMP280;10206;48.012;10.030;2023-04-03T10:58:31;95346.03;;;8.80
31528;BMP280;10206;48.012;10.030;2023-04-03T11:01:08;95340.91;;;8.05
31528;BMP280;10206;48.012;10.030;2023-04-03T11:03:41;95334.44;;;8.16
31528;BMP280;10206;48.012;10.030;2023-04-03T11:06:11;95337.91;;;8.52
31528;BMP280;10206;48.012;10.030;2023-04-03T11:09:02;95335.03;;;7.94
31528;BMP280;10206;48.012;10.030;2023-04-03T11:11:35;95336.59;;;7.69
31528;BMP280;10206;48.012;10.030;2023-04-03T11:16:36;95333.38;;;7.70
31528;BMP280;10206;48.012;10.030;2023-04-03T11:19:11;95334.56;;;7.82
31528;BMP280;10206;48.012;10.030;2023-04-03T11:21:47;95333.22;;;7.96
31528;BMP280;10206;48.012;10.030;2023-04-03T11:24:25;95331.69;;;7.88
31528;BMP280;10206;48.012;10.030;2023-04-03T11:26:55;95329.09;;;8.31
31528;BMP280;10206;48.012;10.030;2023-04-03T11:29:27;95318.50;;;8.20
31528;BMP280;10206;48.012;10.030;2023-04-03T11:32:08;95322.97;;;8.38
31528;BMP280;10206;48.012;10.030;2023-04-03T11:34:46;95322.50;;;8.19
31528;BMP280;10206;48.012;10.030;2023-04-03T11:39:54;95321.13;;;9.42
31528;BMP280;10206;48.012;10.030;2023-04-03T11:42:37;95320.78;;;9.99
31528;BMP280;10206;48.012;10.030;2023-04-03T11:53:02;95308.22;;;9.13
31528;BMP280;10206;48.012;10.030;2023-04-03T12:16:27;95295.78;;;8.02
31528;BMP280;10206;48.012;10.030;2023-04-03T12:24:04;95304.69;;;8.74
31528;BMP280;10206;48.012;10.030;2023-04-03T12:29:27;95302.66;;;8.75
31528;BMP280;10206;48.012;10.030;2023-04-03T12:48:47;95290.25;;;9.10
31528;BMP280;10206;48.012;10.030;2023-04-03T12:51:16;95296.31;;;8.72
31528;BMP280;10206;48.012;10.030;2023-04-03T12:53:44;95290.22;;;8.44
31528;BMP280;10206;48.012;10.030;2023-04-03T12:56:28;95283.81;;;8.77
31528;BMP280;10206;48.012;10.030;2023-04-03T13:01:43;95279.09;;;8.34
31528;BMP280;10206;48.012;10.030;2023-04-03T13:04:11;95293.03;;;8.66
31528;BMP280;10206;48.012;10.030;2023-04-03T13:06:43;95287.81;;;8.76
31528;BMP280;10206;48.012;10.030;2023-04-03T13:09:20;95286.25;;;8.52
31528;BMP280;10206;48.012;10.030;2023-04-03T13:11:55;95297.03;;;8.73
31528;BMP280;10206;48.012;10.030;2023-04-03T13:14:25;95299.97;;;8.39
31528;BMP280;10206;48.012;10.030;2023-04-03T13:16:56;95298.84;;;8.70
31528;BMP280;10206;48.012;10.030;2023-04-03T13:19:24;95287.91;;;9.14
31528;BMP280;10206;48.012;10.030;2023-04-03T13:22:19;95289.38;;;9.22
31528;BMP280;10206;48.012;10.030;2023-04-03T13:24:45;95295.44;;;8.85
31528;BMP280;10206;48.012;10.030;2023-04-03T13:27:13;95296.69;;;8.76
31528;BMP280;10206;48.012;10.030;2023-04-03T13:29:39;95296.59;;;9.05
31528;BMP280;10206;48.012;10.030;2023-04-03T13:32:06;95282.81;;;8.59
31528;BMP280;10206;48.012;10.030;2023-04-03T13:34:42;95286.72;;;8.86
31528;BMP280;10206;48.012;10.030;2023-04-03T13:42:32;95272.78;;;8.98
31528;BMP280;10206;48.012;10.030;2023-04-03T13:45:23;95275.47;;;8.75
31528;BMP280;10206;48.012;10.030;2023-04-03T13:47:51;95280.09;;;9.18
31528;BMP280;10206;48.012;10.030;2023-04-03T13:50:25;95283.44;;;8.73
31528;BMP280;10206;48.012;10.030;2023-04-03T13:53:03;95279.69;;;8.83
31528;BMP280;10206;48.012;10.030;2023-04-03T13:55:36;95281.09;;;8.77
31528;BMP280;10206;48.012;10.030;2023-04-03T14:00:52;95277.47;;;8.82
31528;BMP280;10206;48.012;10.030;2023-04-03T14:03:32;95272.88;;;8.54
31528;BMP280;10206;48.012;10.030;2023-04-03T14:05:59;95269.69;;;7.79
31528;BMP280;10206;48.012;10.030;2023-04-03T14:08:27;95275.03;;;7.43
31528;BMP280;10206;48.012;10.030;2023-04-03T14:10:53;95277.44;;;7.26
31528;BMP280;10206;48.012;10.030;2023-04-03T14:13:20;95270.56;;;7.53
31528;BMP280;10206;48.012;10.030;2023-04-03T14:15:47;95270.44;;;7.79
31528;BMP280;10206;48.012;10.030;2023-04-03T14:18:16;95273.41;;;7.89
31528;BMP280;10206;48.012;10.030;2023-04-03T14:20:43;95261.53;;;7.99
31528;BMP280;10206;48.012;10.030;2023-04-03T14:23:10;95267.28;;;7.96
31528;BMP280;10206;48.012;10.030;2023-04-03T14:25:37;95270.63;;;8.09
31528;BMP280;10206;48.012;10.030;2023-04-03T14:28:17;95265.34;;;8.32
31528;BMP280;10206;48.012;10.030;2023-04-03T14:30:44;95261.59;;;7.86
31528;BMP280;10206;48.012;10.030;2023-04-03T14:33:15;95264.25;;;8.35
31528;BMP280;10206;48.012;10.030;2023-04-03T14:35:42;95262.34;;;8.58
31528;BMP280;10206;48.012;10.030;2023-04-03T14:38:26;95261.72;;;8.01
31528;BMP280;10206;48.012;10.030;2023-04-03T14:40:53;95264.38;;;8.65
31528;BMP280;10206;48.012;10.030;2023-04-03T14:43:20;95261.66;;;8.30
31528;BMP280;10206;48.012;10.030;2023-04-03T14:45:47;95259.06;;;7.60
31528;BMP280;10206;48.012;10.030;2023-04-03T14:48:30;95256.53;;;8.47
31528;BMP280;10206;48.012;10.030;2023-04-03T14:50:56;95250.47;;;8.33
31528;BMP280;10206;48.012;10.030;2023-04-03T14:53:23;95243.47;;;9.19
31528;BMP280;10206;48.012;10.030;2023-04-03T14:55:50;95240.13;;;8.98
31528;BMP280;10206;48.012;10.030;2023-04-03T14:58:19;95255.28;;;8.55
31528;BMP280;10206;48.012;10.030;2023-04-03T15:00:46;95249.97;;;8.06
31528;BMP280;10206;48.012;10.030;2023-04-03T15:03:14;95254.59;;;7.91
31528;BMP280;10206;48.012;10.030;2023-04-03T15:05:41;95251.06;;;7.54
31528;BMP280;10206;48.012;10.030;2023-04-03T15:08:25;95254.53;;;8.11
31528;BMP280;10206;48.012;10.030;2023-04-03T15:10:52;95256.22;;;8.22
31528;BMP280;10206;48.012;10.030;2023-04-03T15:13:19;95255.19;;;8.40
31528;BMP280;10206;48.012;10.030;2023-04-03T15:15:46;95258.28;;;8.37
31528;BMP280;10206;48.012;10.030;2023-04-03T15:18:17;95255.72;;;8.82
31528;BMP280;10206;48.012;10.030;2023-04-03T15:20:44;95252.91;;;8.59
31528;BMP280;10206;48.012;10.030;2023-04-03T15:23:14;95249.84;;;8.63
31528;BMP280;10206;48.012;10.030;2023-04-03T15:25:45;95244.56;;;8.14
31528;BMP280;10206;48.012;10.030;2023-04-03T15:30:58;95259.38;;;8.41
31528;BMP280;10206;48.012;10.030;2023-04-03T15:33:25;95253.81;;;8.54
31528;BMP280;10206;48.012;10.030;2023-04-03T15:35:52;95259.13;;;8.24
31528;BMP280;10206;48.012;10.030;2023-04-03T15:38:18;95254.22;;;8.22
31528;BMP280;10206;48.012;10.030;2023-04-03T15:40:44;95254.50;;;8.47
31528;BMP280;10206;48.012;10.030;2023-04-03T15:43:13;95256.41;;;8.24
31528;BMP280;10206;48.012;10.030;2023-04-03T15:45:40;95256.31;;;8.09
31528;BMP280;10206;48.012;10.030;2023-04-03T15:48:07;95251.63;;;8.53
31528;BMP280;10206;48.012;10.030;2023-04-03T15:50:34;95257.41;;;8.49
31528;BMP280;10206;48.012;10.030;2023-04-03T15:53:01;95259.25;;;8.18
31528;BMP280;10206;48.012;10.030;2023-04-03T15:55:30;95252.72;;;8.14
31528;BMP280;10206;48.012;10.030;2023-04-03T15:57:56;95258.00;;;7.84
31528;BMP280;10206;48.012;10.030;2023-04-03T16:00:23;95249.97;;;7.78
31528;BMP280;10206;48.012;10.030;2023-04-03T16:02:57;95252.72;;;7.86
31528;BMP280;10206;48.012;10.030;2023-04-03T16:05:25;95249.56;;;7.74
31528;BMP280;10206;48.012;10.030;2023-04-03T16:07:52;95246.03;;;7.87
31528;BMP280;10206;48.012;10.030;2023-04-03T16:10:18;95257.53;;;7.72
31528;BMP280;10206;48.012;10.030;2023-04-03T16:12:45;95253.97;;;7.56
31528;BMP280;10206;48.012;10.030;2023-04-03T16:15:11;95256.38;;;7.39
31528;BMP280;10206;48.012;10.030;2023-04-03T16:17:38;95257.94;;;7.55
31528;BMP280;10206;48.012;10.030;2023-04-03T16:20:07;95258.81;;;7.50
31528;BMP280;10206;48.012;10.030;2023-04-03T16:22:34;95266.28;;;7.57
31528;BMP280;10206;48.012;10.030;2023-04-03T16:25:01;95258.88;;;7.37
31528;BMP280;10206;48.012;10.030;2023-04-03T16:27:27;95260.31;;;7.80
31528;BMP280;10206;48.012;10.030;2023-04-03T16:29:56;95253.66;;;7.60